createdAt,value
2018-12-08T16:15:33.803Z,82.33
2018-12-08T16:16:37.840Z,82.27
2018-12-08T16:17:41.783Z,82.09
2018-12-08T16:18:45.724Z,82.40
2018-12-08T16:19:49.647Z,82.53
2018-12-08T16:20:53.656Z,82.67
2018-12-08T16:21:57.899Z,82.64
2018-12-08T16:23:01.921Z,82.70
2018-12-08T16:24:05.943Z,82.55
2018-12-08T16:25:10.007Z,82.74
2018-12-08T16:26:14.023Z,82.78
2018-12-08T16:27:18.115Z,82.65
2018-12-08T16:28:22.192Z,82.80
2018-12-08T16:29:26.160Z,82.60
2018-12-08T16:30:30.129Z,82.66
2018-12-08T16:31:34.156Z,82.68
2018-12-08T16:32:38.289Z,82.74
2018-12-08T16:33:42.244Z,82.89
2018-12-08T16:34:46.219Z,82.73
2018-12-08T16:35:50.285Z,82.90
2018-12-08T16:36:54.251Z,82.68
2018-12-08T16:37:58.299Z,82.66
2018-12-08T16:39:02.234Z,82.62
2018-12-08T16:40:06.844Z,82.42
2018-12-08T16:41:10.835Z,82.45
2018-12-08T16:42:14.802Z,82.42
2018-12-08T16:43:18.828Z,82.35
2018-12-08T16:44:22.848Z,82.20
2018-12-08T16:45:26.820Z,82.12
2018-12-08T16:46:30.846Z,82.26
2018-12-08T16:47:34.871Z,82.26
2018-12-08T16:48:38.939Z,81.96
2018-12-08T16:49:42.944Z,81.82
2018-12-08T16:50:46.944Z,82.01
2018-12-08T16:51:50.910Z,81.82
2018-12-08T16:52:54.856Z,81.82
2018-12-08T16:53:59.741Z,81.86
2018-12-08T16:55:03.741Z,81.76
2018-12-08T16:56:07.697Z,81.89
2018-12-08T16:57:11.741Z,81.85
2018-12-08T16:58:15.841Z,81.69
2018-12-08T16:59:19.801Z,81.76
2018-12-08T17:00:23.772Z,81.70
2018-12-08T17:01:27.782Z,81.63
2018-12-08T17:02:31.968Z,81.46
2018-12-08T17:03:35.984Z,81.38
2018-12-08T17:04:39.943Z,81.25
2018-12-08T17:05:43.931Z,81.32
2018-12-08T17:06:47.936Z,81.07
2018-12-08T17:07:51.953Z,81.30
2018-12-08T17:08:55.929Z,81.30
2018-12-08T17:10:00.001Z,81.44
2018-12-08T17:11:03.976Z,81.46
2018-12-08T17:12:07.981Z,81.32
2018-12-08T17:13:11.971Z,81.28
2018-12-08T17:14:16.172Z,81.06
2018-12-08T17:15:20.230Z,80.98
2018-12-08T17:16:24.198Z,80.91
2018-12-08T17:17:28.215Z,80.94
2018-12-08T17:18:32.294Z,81.00
2018-12-08T17:19:36.355Z,80.86
2018-12-08T17:20:40.322Z,80.88
2018-12-08T17:21:44.289Z,80.71
2018-12-08T17:22:48.262Z,80.80
2018-12-08T17:23:52.208Z,80.56
2018-12-08T17:24:56.195Z,80.73
2018-12-08T17:26:00.159Z,80.67
2018-12-08T17:27:04.204Z,80.63
2018-12-08T17:28:08.212Z,80.67
2018-12-08T17:29:12.280Z,80.70
2018-12-08T17:30:16.353Z,80.77
2018-12-08T17:31:20.290Z,80.78
2018-12-08T17:32:24.322Z,80.76
2018-12-08T17:33:28.281Z,80.84
2018-12-08T17:34:32.274Z,80.88
2018-12-08T17:35:36.291Z,80.85
2018-12-08T17:36:40.294Z,80.64
2018-12-08T17:37:44.306Z,80.63
2018-12-08T17:38:48.291Z,80.54
2018-12-08T17:39:52.304Z,80.75
2018-12-08T17:40:56.348Z,80.75
2018-12-08T17:42:00.366Z,80.72
2018-12-08T17:43:04.377Z,80.68
2018-12-08T17:44:08.393Z,80.59
2018-12-08T17:45:12.498Z,80.53
2018-12-08T17:46:16.573Z,80.60
2018-12-08T17:47:20.543Z,80.36
2018-12-08T17:48:24.501Z,80.34
2018-12-08T17:49:28.547Z,80.55
2018-12-08T17:50:32.644Z,80.35
2018-12-08T17:51:36.660Z,80.45
2018-12-08T17:52:40.609Z,80.38
2018-12-08T17:53:44.629Z,80.40
2018-12-08T17:54:50.342Z,80.17
2018-12-08T17:55:54.307Z,79.90
2018-12-08T17:56:58.391Z,79.95
2018-12-08T17:58:02.529Z,80.02
2018-12-08T17:59:06.494Z,80.12
2018-12-08T18:00:10.649Z,80.19
2018-12-08T18:01:14.649Z,80.22
2018-12-08T18:02:18.704Z,80.25
2018-12-08T18:03:22.683Z,80.11
2018-12-08T18:04:26.693Z,80.14
2018-12-08T18:05:30.654Z,80.26
2018-12-08T18:06:34.804Z,80.21
2018-12-08T18:07:38.971Z,80.21
2018-12-08T18:08:42.947Z,80.13
2018-12-08T18:09:47.028Z,80.10
2018-12-08T18:10:51.012Z,79.91
2018-12-08T18:11:55.175Z,79.95
2018-12-08T18:12:59.297Z,80.06
2018-12-08T18:14:03.579Z,80.11
2018-12-08T18:15:07.681Z,80.13
2018-12-08T18:16:11.782Z,80.18
2018-12-08T18:17:15.841Z,80.21
2018-12-08T18:18:20.074Z,80.24
2018-12-08T18:19:24.127Z,80.25
2018-12-08T18:20:28.088Z,80.21
2018-12-08T18:21:32.176Z,79.97
2018-12-08T18:22:36.167Z,80.07
2018-12-08T18:23:40.280Z,80.11
2018-12-08T18:24:44.268Z,80.21
2018-12-08T18:25:48.233Z,79.98
2018-12-08T18:26:52.234Z,79.91
2018-12-08T18:27:56.159Z,79.93
2018-12-08T18:29:00.133Z,80.18
2018-12-08T18:30:04.280Z,80.02
2018-12-08T18:31:08.240Z,80.05
2018-12-08T18:32:12.284Z,80.22
2018-12-08T18:33:16.248Z,80.12
2018-12-08T18:34:20.300Z,80.28
2018-12-08T18:35:24.268Z,80.27
2018-12-08T18:36:28.255Z,79.95
2018-12-08T18:37:32.243Z,80.03
2018-12-08T18:38:36.303Z,80.29
2018-12-08T18:39:40.383Z,80.07
2018-12-08T18:40:44.396Z,80.24
2018-12-08T18:41:48.365Z,80.32
2018-12-08T18:42:52.331Z,80.39
2018-12-08T18:43:56.384Z,80.51
2018-12-08T18:45:00.408Z,80.43
2018-12-08T18:46:04.550Z,80.44
2018-12-08T18:47:14.828Z,80.57
2018-12-08T18:48:18.768Z,80.42
2018-12-08T18:49:22.806Z,80.76
2018-12-08T18:50:26.904Z,80.83
2018-12-08T18:51:30.922Z,80.71
2018-12-08T18:52:35.107Z,80.50
2018-12-08T18:53:39.391Z,80.68
2018-12-08T18:54:43.407Z,80.41
2018-12-08T18:55:47.525Z,80.51
2018-12-08T18:56:51.504Z,80.67
2018-12-08T18:57:55.544Z,80.46
2018-12-08T18:58:59.573Z,80.65
2018-12-08T19:00:03.739Z,80.32
2018-12-08T19:01:07.846Z,80.13
2018-12-08T19:02:12.053Z,80.35
2018-12-08T19:03:16.119Z,80.50
2018-12-08T19:04:20.165Z,80.45
2018-12-08T19:05:24.174Z,80.42
2018-12-08T19:06:28.260Z,80.06
2018-12-08T19:07:32.299Z,80.14
2018-12-08T19:08:36.429Z,80.47
2018-12-08T19:09:40.428Z,80.34
2018-12-08T19:10:44.484Z,80.35
2018-12-08T19:11:48.570Z,80.52
2018-12-08T19:12:52.656Z,80.49
2018-12-08T19:13:56.672Z,80.05
2018-12-08T19:15:00.676Z,80.11
2018-12-08T19:16:04.702Z,80.47
2018-12-08T19:17:08.734Z,80.10
2018-12-08T19:18:12.837Z,80.15
2018-12-08T19:19:16.888Z,80.11
2018-12-08T19:20:20.979Z,80.20
2018-12-08T19:21:31.495Z,80.11
2018-12-08T19:22:35.581Z,80.13
2018-12-08T19:23:43.611Z,80.20
2018-12-08T19:24:43.721Z,80.22
2018-12-08T19:25:47.720Z,80.07
2018-12-08T19:26:51.753Z,79.99
2018-12-08T19:27:56.219Z,80.09
2018-12-08T19:29:00.215Z,80.04
2018-12-08T19:30:04.339Z,80.31
2018-12-08T19:31:08.351Z,80.41
2018-12-08T19:32:12.437Z,79.88
2018-12-08T19:33:16.743Z,79.81
2018-12-08T19:34:20.990Z,80.00
2018-12-08T19:35:25.098Z,79.83
2018-12-08T19:36:29.397Z,80.02
2018-12-08T19:37:33.581Z,79.87
2018-12-08T19:38:37.697Z,80.27
2018-12-08T19:39:41.696Z,80.33
2018-12-08T19:40:45.790Z,80.04
2018-12-08T19:41:49.905Z,79.98
2018-12-08T19:42:54.037Z,79.93
2018-12-08T19:43:58.150Z,80.06
2018-12-08T19:45:02.104Z,79.86
2018-12-08T19:46:06.390Z,79.95
2018-12-08T19:47:10.470Z,80.11
2018-12-08T19:48:14.519Z,80.35
2018-12-08T19:49:18.646Z,80.18
2018-12-08T19:50:22.663Z,80.18
2018-12-08T19:51:26.767Z,80.14
2018-12-08T19:52:30.798Z,80.03
2018-12-08T19:53:34.930Z,80.14
2018-12-08T19:54:39.097Z,80.08
2018-12-08T19:55:43.341Z,80.15
2018-12-08T19:56:47.384Z,80.08
2018-12-08T19:57:51.440Z,80.02
2018-12-08T19:58:55.518Z,80.07
2018-12-08T19:59:59.627Z,80.32
2018-12-08T20:01:03.712Z,80.47
2018-12-08T20:02:07.743Z,80.37
2018-12-08T20:03:11.822Z,80.42
2018-12-08T20:04:15.991Z,80.37
2018-12-08T20:05:20.178Z,80.36
2018-12-08T20:06:24.253Z,80.42
2018-12-08T20:07:28.573Z,80.59
2018-12-08T20:08:32.643Z,80.44
2018-12-08T20:09:36.784Z,80.33
2018-12-08T20:10:40.816Z,80.39
2018-12-08T20:11:44.955Z,80.41
2018-12-08T20:12:49.054Z,80.45
2018-12-08T20:13:53.202Z,80.50
2018-12-08T20:14:57.269Z,80.48
2018-12-08T20:16:01.425Z,80.39
2018-12-08T20:17:05.488Z,80.49
2018-12-08T20:18:09.514Z,80.42
2018-12-08T20:19:13.593Z,80.35
2018-12-08T20:20:17.675Z,80.59
2018-12-08T20:21:21.788Z,80.41
2018-12-08T20:22:25.999Z,80.45
2018-12-08T20:23:30.178Z,80.52
2018-12-08T20:24:34.362Z,80.39
2018-12-08T20:25:38.707Z,80.43
2018-12-08T20:26:43.297Z,80.55
2018-12-08T20:27:47.930Z,80.56
2018-12-08T20:28:52.156Z,80.76
2018-12-08T20:29:56.398Z,80.43
2018-12-08T20:31:00.657Z,80.78
2018-12-08T20:32:04.891Z,80.38
2018-12-08T20:33:09.185Z,80.51
2018-12-08T20:34:13.755Z,80.56
2018-12-08T20:35:18.115Z,80.57
2018-12-08T20:36:22.573Z,80.56
2018-12-08T20:37:27.052Z,80.49
2018-12-08T20:38:31.431Z,80.34
2018-12-08T20:39:35.881Z,80.47
2018-12-08T20:40:40.263Z,80.62
2018-12-08T20:41:45.014Z,80.57
2018-12-08T20:42:49.724Z,80.45
2018-12-08T20:43:54.328Z,80.59
2018-12-08T20:44:58.650Z,80.41
2018-12-08T20:46:02.883Z,80.43
2018-12-08T20:47:07.233Z,80.39
2018-12-08T20:48:11.651Z,80.41
2018-12-08T20:49:15.869Z,80.42
2018-12-08T20:50:19.882Z,80.35
2018-12-08T20:51:30.492Z,80.49
2018-12-08T20:52:34.534Z,80.21
2018-12-08T20:53:38.660Z,80.37
2018-12-08T20:54:42.703Z,80.55
2018-12-08T20:55:46.881Z,80.44
2018-12-08T20:56:50.972Z,80.60
2018-12-08T20:57:54.952Z,80.81
2018-12-08T20:58:58.989Z,80.69
2018-12-08T21:00:03.046Z,80.78
2018-12-08T21:01:07.187Z,80.68
2018-12-08T21:02:11.279Z,80.54
2018-12-08T21:03:15.363Z,80.62
2018-12-08T21:04:19.423Z,80.61
2018-12-08T21:05:23.507Z,80.46
2018-12-08T21:06:27.617Z,80.49
2018-12-08T21:07:31.751Z,80.61
2018-12-08T21:08:36.130Z,80.46
2018-12-08T21:09:40.214Z,80.67
2018-12-08T21:10:44.270Z,80.40
2018-12-08T21:11:48.444Z,80.47
2018-12-08T21:12:52.539Z,80.49
2018-12-08T21:13:56.642Z,80.53
2018-12-08T21:15:00.736Z,80.45
2018-12-08T21:16:04.840Z,80.58
2018-12-08T21:17:08.898Z,80.50
2018-12-08T21:18:12.970Z,80.40
2018-12-08T21:19:17.153Z,80.42
2018-12-08T21:20:21.210Z,80.28
2018-12-08T21:21:25.231Z,80.36
2018-12-08T21:22:29.233Z,80.30
2018-12-08T21:23:33.189Z,80.26
2018-12-08T21:24:37.284Z,80.21
2018-12-08T21:25:41.295Z,80.18
2018-12-08T21:26:45.291Z,80.20
2018-12-08T21:27:49.312Z,80.27
2018-12-08T21:28:53.267Z,80.33
2018-12-08T21:29:57.347Z,80.40
2018-12-08T21:31:01.359Z,80.33
2018-12-08T21:32:06.315Z,80.39
2018-12-08T21:33:09.514Z,80.27
2018-12-08T21:34:13.542Z,80.43
2018-12-08T21:35:17.760Z,80.30
2018-12-08T21:36:21.821Z,80.42
2018-12-08T21:37:25.948Z,80.55
2018-12-08T21:38:29.952Z,80.54
2018-12-08T21:39:34.054Z,80.31
2018-12-08T21:40:38.158Z,80.49
2018-12-08T21:41:42.185Z,80.40
2018-12-08T21:42:46.236Z,80.52
2018-12-08T21:43:50.269Z,80.60
2018-12-08T21:44:54.294Z,80.36
2018-12-08T21:46:01.246Z,80.14
2018-12-08T21:47:05.263Z,80.15
2018-12-08T21:48:09.298Z,80.22
2018-12-08T21:49:13.446Z,80.16
2018-12-08T21:50:17.549Z,80.22
2018-12-08T21:51:21.683Z,80.15
2018-12-08T21:52:25.768Z,80.24
2018-12-08T21:53:29.838Z,80.02
2018-12-08T21:54:33.891Z,80.07
2018-12-08T21:55:37.931Z,80.01
2018-12-08T21:56:42.019Z,79.96
2018-12-08T21:57:46.038Z,80.18
2018-12-08T21:58:50.248Z,80.22
2018-12-08T21:59:54.348Z,80.05
2018-12-08T22:00:58.395Z,80.19
2018-12-08T22:02:02.410Z,80.44
2018-12-08T22:03:06.400Z,80.18
2018-12-08T22:04:10.476Z,80.20
2018-12-08T22:05:14.596Z,80.19
2018-12-08T22:06:18.753Z,80.36
2018-12-08T22:07:22.861Z,80.23
2018-12-08T22:08:27.157Z,80.40
2018-12-08T22:09:31.303Z,80.28
2018-12-08T22:10:35.393Z,80.37
2018-12-08T22:11:39.545Z,80.72
2018-12-08T22:12:43.682Z,80.53
2018-12-08T22:13:47.874Z,80.81
2018-12-08T22:15:05.976Z,80.73
2018-12-08T22:16:10.084Z,80.53
2018-12-08T22:17:14.268Z,80.75
2018-12-08T22:18:18.505Z,80.96
2018-12-08T22:19:22.494Z,81.24
2018-12-08T22:20:26.616Z,81.37
2018-12-08T22:21:30.841Z,81.15
2018-12-08T22:22:34.982Z,81.08
2018-12-08T22:23:39.158Z,81.17
2018-12-08T22:24:43.221Z,81.08
2018-12-08T22:25:47.363Z,81.20
2018-12-08T22:26:51.440Z,81.26
2018-12-08T22:28:02.284Z,81.43
2018-12-08T22:29:06.434Z,81.23
2018-12-08T22:30:10.737Z,81.28
2018-12-08T22:31:14.800Z,81.03
2018-12-08T22:32:18.883Z,80.93
2018-12-08T22:33:23.003Z,80.94
2018-12-08T22:34:27.309Z,81.03
2018-12-08T22:35:31.437Z,81.05
2018-12-08T22:36:35.496Z,80.91
2018-12-08T22:37:40.115Z,81.02
2018-12-08T22:38:44.260Z,80.92
2018-12-08T22:39:48.450Z,80.95
2018-12-08T22:40:52.669Z,81.01
2018-12-08T22:41:56.907Z,80.75
2018-12-08T22:43:00.988Z,81.01
2018-12-08T22:44:05.109Z,80.76
2018-12-08T22:45:09.199Z,80.83
2018-12-08T22:46:13.298Z,80.81
2018-12-08T22:47:17.415Z,80.91
2018-12-08T22:48:21.490Z,80.85
2018-12-08T22:49:25.551Z,80.76
2018-12-08T22:50:29.729Z,80.60
2018-12-08T22:51:33.954Z,80.81
2018-12-08T22:52:37.986Z,80.68
2018-12-08T22:53:42.000Z,80.72
2018-12-08T22:54:46.175Z,80.87
2018-12-08T22:55:55.047Z,81.02
2018-12-08T22:56:59.456Z,80.72
2018-12-08T22:58:03.873Z,80.79
2018-12-08T22:59:08.255Z,80.83
2018-12-08T23:00:43.183Z,80.72
2018-12-08T23:01:47.187Z,80.89
2018-12-08T23:02:51.307Z,80.86
2018-12-08T23:03:55.611Z,80.97
2018-12-08T23:04:59.656Z,81.01
2018-12-08T23:06:03.797Z,80.96
2018-12-08T23:07:07.966Z,80.81
2018-12-08T23:08:12.007Z,80.75
2018-12-08T23:09:16.108Z,80.77
2018-12-08T23:10:20.137Z,81.00
2018-12-08T23:11:24.184Z,80.94
2018-12-08T23:12:28.323Z,80.85
2018-12-08T23:13:32.728Z,81.12
2018-12-08T23:14:36.804Z,81.02
2018-12-08T23:15:40.913Z,81.22
2018-12-08T23:16:44.973Z,81.03
2018-12-08T23:17:48.983Z,81.04
2018-12-08T23:18:53.533Z,81.00
2018-12-08T23:19:57.578Z,81.15
2018-12-08T23:21:01.634Z,81.20
2018-12-08T23:22:05.739Z,81.11
2018-12-08T23:23:09.982Z,81.82
2018-12-08T23:24:14.155Z,81.65
2018-12-08T23:25:18.158Z,81.51
2018-12-08T23:26:22.130Z,81.87
2018-12-08T23:27:26.271Z,81.78
2018-12-08T23:28:30.499Z,81.79
2018-12-08T23:29:34.646Z,82.31
2018-12-08T23:30:38.676Z,81.87
2018-12-08T23:31:42.870Z,82.11
2018-12-08T23:32:46.943Z,82.04
2018-12-08T23:33:51.031Z,81.80
2018-12-08T23:34:55.077Z,81.97
2018-12-08T23:35:59.094Z,82.22
2018-12-08T23:37:03.474Z,82.02
2018-12-08T23:38:07.653Z,81.98
2018-12-08T23:39:11.695Z,81.90
2018-12-08T23:40:15.761Z,81.88
2018-12-08T23:41:19.824Z,82.04
2018-12-08T23:42:23.830Z,82.01
2018-12-08T23:43:27.895Z,82.09
2018-12-08T23:44:31.878Z,82.29
2018-12-08T23:45:35.933Z,82.04
2018-12-08T23:46:39.919Z,82.01
2018-12-08T23:47:44.015Z,82.13
2018-12-08T23:48:48.045Z,82.74
2018-12-08T23:49:52.181Z,82.58
2018-12-08T23:50:56.188Z,82.63
2018-12-08T23:52:00.235Z,82.58
2018-12-08T23:53:04.271Z,82.57
2018-12-08T23:54:08.234Z,82.42
2018-12-08T23:55:12.340Z,82.18
2018-12-08T23:56:16.343Z,82.18
2018-12-08T23:57:20.394Z,82.36
2018-12-08T23:58:24.411Z,82.21
2018-12-08T23:59:28.364Z,81.86
